Time;durP1;ratioP1;P1;durP2;ratioP2;P2;SDS_P1;SDS_P2;PMS_P1;PMS_P2;Temp;Humidity;BMP_temperature;BMP_pressure;BME280_temperature;BME280_humidity;BME280_pressure;Samples;Min_cycle;Max_cycle;Signal;HPM_P1;HPM_P2
2022/04/12 00:00:33;;;;;;;5.50;4.25;;;14.20;66.80;;;;;;5034726;28;20048;-76
2022/04/12 00:02:59;;;;;;;6.55;4.30;;;14.20;66.80;;;;;;5051146;28;20127;-75
2022/04/12 00:05:25;;;;;;;5.35;4.18;;;14.20;66.80;;;;;;5050950;28;20099;-75
2022/04/12 00:07:53;;;;;;;5.35;4.25;;;14.10;66.80;;;;;;5068852;28;20113;-75
2022/04/12 00:10:18;;;;;;;5.50;4.22;;;14.10;67.20;;;;;;5052559;28;20032;-75
2022/04/12 00:12:44;;;;;;;5.80;4.60;;;14.10;66.90;;;;;;5055163;28;20040;-75
2022/04/12 00:15:11;;;;;;;5.68;4.05;;;14.10;66.90;;;;;;5052504;28;20409;-75
2022/04/12 00:20:26;;;;;;;5.85;4.22;;;14.00;66.90;;;;;;5065062;28;20721;-75
2022/04/12 00:22:53;;;;;;;6.10;4.32;;;14.00;66.90;;;;;;5068802;28;20025;-75
2022/04/12 00:25:22;;;;;;;5.35;4.07;;;14.00;67.00;;;;;;5057652;28;20438;-75
2022/04/12 00:27:49;;;;;;;4.82;3.97;;;13.90;67.00;;;;;;5058297;28;20055;-75
2022/04/12 00:30:15;;;;;;;5.05;3.88;;;13.90;67.70;;;;;;5053020;28;20043;-75
2022/04/12 00:32:41;;;;;;;5.43;4.07;;;13.80;67.00;;;;;;5042050;28;20044;-75
2022/04/12 00:35:08;;;;;;;5.78;4.25;;;13.80;67.10;;;;;;5036274;28;20161;-76
2022/04/12 00:37:35;;;;;;;5.40;3.83;;;13.80;67.10;;;;;;5051818;28;20033;-75
2022/04/12 00:40:00;;;;;;;5.90;4.18;;;13.80;67.20;;;;;;5068447;28;20035;-75
2022/04/12 00:42:26;;;;;;;5.93;4.35;;;13.80;67.20;;;;;;5054538;28;20032;-75
2022/04/12 00:44:52;;;;;;;6.03;4.22;;;13.70;67.20;;;;;;5053234;28;20029;-75
2022/04/12 00:47:18;;;;;;;5.88;4.25;;;13.70;67.20;;;;;;5036577;28;20040;-75
2022/04/12 00:49:44;;;;;;;5.63;4.18;;;13.70;67.30;;;;;;5051319;28;20071;-74
2022/04/12 00:52:11;;;;;;;5.97;4.50;;;13.60;67.20;;;;;;5038193;28;20032;-75
2022/04/12 00:54:38;;;;;;;5.47;3.90;;;13.60;67.30;;;;;;5050137;28;20032;-75
2022/04/12 00:57:06;;;;;;;5.22;4.25;;;13.60;67.30;;;;;;5050394;28;20111;-75
2022/04/12 00:59:32;;;;;;;4.95;4.22;;;13.60;67.30;;;;;;5043051;28;20465;-75
2022/04/12 01:01:58;;;;;;;4.30;3.55;;;13.60;67.40;;;;;;5067733;28;20096;-75
2022/04/12 01:04:24;;;;;;;5.47;4.10;;;13.50;67.40;;;;;;5050370;28;22110;-75
2022/04/12 01:06:51;;;;;;;5.80;3.67;;;13.50;67.40;;;;;;5034278;28;20049;-75
2022/04/12 01:09:17;;;;;;;4.97;3.70;;;13.50;67.40;;;;;;5050234;28;20089;-75
2022/04/12 01:11:48;;;;;;;5.10;3.85;;;13.50;67.40;;;;;;5040066;28;20112;-75
2022/04/12 01:14:17;;;;;;;4.93;3.90;;;13.50;67.50;;;;;;5050044;28;20536;-74
2022/04/12 01:16:43;;;;;;;5.65;4.10;;;13.40;67.40;;;;;;5053065;28;20028;-76
2022/04/12 01:19:09;;;;;;;5.40;4.20;;;13.40;67.50;;;;;;5054981;28;20035;-75
2022/04/12 01:21:54;;;;;;;5.45;4.13;;;13.40;67.50;;;;;;5052430;28;20032;-75
2022/04/12 01:24:21;;;;;;;5.40;3.92;;;13.40;67.60;;;;;;5033495;28;20078;-75
2022/04/12 01:26:46;;;;;;;4.68;3.22;;;13.30;68.10;;;;;;5069269;28;20154;-75
2022/04/12 01:29:13;;;;;;;4.95;3.58;;;13.30;67.50;;;;;;5051229;28;20135;-76
2022/04/12 01:31:39;;;;;;;5.03;3.63;;;13.30;67.60;;;;;;5051453;28;20525;-75
2022/04/12 01:34:05;;;;;;;5.32;3.67;;;13.30;67.60;;;;;;5051945;28;20040;-75
2022/04/12 01:36:30;;;;;;;5.18;4.03;;;13.20;67.60;;;;;;5053654;28;20028;-75
2022/04/12 01:38:57;;;;;;;4.93;3.83;;;13.20;67.60;;;;;;5050119;28;20024;-75
2022/04/12 01:41:22;;;;;;;4.82;3.75;;;13.20;67.60;;;;;;5036709;28;20419;-75
2022/04/12 01:43:48;;;;;;;5.00;3.70;;;13.20;67.70;;;;;;5050535;28;20024;-75
2022/04/12 01:46:14;;;;;;;4.95;3.80;;;13.10;67.60;;;;;;5034358;28;20036;-75
2022/04/12 01:48:39;;;;;;;4.85;3.80;;;13.10;67.70;;;;;;5047261;28;20473;-76
2022/04/12 01:51:05;;;;;;;4.63;3.72;;;13.10;67.70;;;;;;5053906;28;20107;-75
2022/04/12 01:53:31;;;;;;;5.03;3.95;;;13.10;67.70;;;;;;5052356;28;20113;-75
2022/04/12 01:55:57;;;;;;;4.97;3.95;;;13.10;67.70;;;;;;5056853;28;20073;-75
2022/04/12 01:58:22;;;;;;;5.38;3.85;;;13.00;67.70;;;;;;5057485;28;20033;-75
2022/04/12 02:00:48;;;;;;;5.53;4.15;;;13.00;68.20;;;;;;5058787;28;20029;-75
2022/04/12 02:03:14;;;;;;;4.38;3.50;;;13.00;67.80;;;;;;5067117;28;20128;-75
2022/04/12 02:05:40;;;;;;;5.40;4.00;;;13.00;67.80;;;;;;5055877;28;20111;-75
2022/04/12 02:08:07;;;;;;;5.10;3.92;;;13.00;67.80;;;;;;5036773;28;20138;-75
2022/04/12 02:10:33;;;;;;;5.07;3.72;;;12.90;67.80;;;;;;5053132;28;20032;-75
2022/04/12 02:12:58;;;;;;;5.22;4.28;;;12.90;67.80;;;;;;5054067;28;20029;-75
2022/04/12 02:15:24;;;;;;;5.00;3.83;;;12.90;67.90;;;;;;5049926;28;20021;-77
2022/04/12 02:17:50;;;;;;;5.30;3.83;;;12.90;67.90;;;;;;5039548;28;20404;-75
2022/04/12 02:20:16;;;;;;;4.65;3.70;;;12.80;67.90;;;;;;5058737;28;20043;-75
2022/04/12 02:22:41;;;;;;;4.95;3.88;;;12.80;67.90;;;;;;5044255;28;20033;-75
2022/04/12 02:25:08;;;;;;;5.50;3.75;;;12.80;67.90;;;;;;5073004;28;20127;-75
2022/04/12 02:27:34;;;;;;;4.90;3.63;;;12.80;67.90;;;;;;5070354;28;20029;-76
2022/04/12 02:30:00;;;;;;;4.35;3.33;;;12.70;67.90;;;;;;5056229;28;20029;-75
2022/04/12 02:32:25;;;;;;;4.78;3.75;;;12.70;67.90;;;;;;5036274;28;20401;-75
2022/04/12 02:34:51;;;;;;;4.70;3.47;;;12.70;67.90;;;;;;5069587;28;20033;-75
2022/04/12 02:37:17;;;;;;;5.00;3.60;;;12.70;67.90;;;;;;5051441;28;20511;-75
2022/04/12 02:39:42;;;;;;;5.00;3.83;;;12.70;67.90;;;;;;5054482;28;20029;-75
2022/04/12 02:42:08;;;;;;;5.20;3.63;;;12.60;67.90;;;;;;5058174;28;20452;-75
2022/04/12 02:44:34;;;;;;;5.18;4.05;;;12.60;68.00;;;;;;5024926;28;20377;-75
2022/04/12 02:46:59;;;;;;;4.88;3.45;;;12.60;68.00;;;;;;5039467;28;20032;-75
2022/04/12 02:49:25;;;;;;;4.93;3.65;;;12.50;67.90;;;;;;5036363;28;20036;-75
2022/04/12 02:51:51;;;;;;;5.25;3.97;;;12.60;68.00;;;;;;5051100;28;20035;-75
2022/04/12 02:54:17;;;;;;;4.78;3.75;;;12.50;68.00;;;;;;5053116;28;20060;-75
2022/04/12 02:56:43;;;;;;;4.45;3.55;;;12.50;68.00;;;;;;5049986;28;20074;-76
2022/04/12 02:59:09;;;;;;;4.97;3.78;;;12.50;68.00;;;;;;5056274;28;20036;-76
2022/04/12 03:01:35;;;;;;;4.88;3.33;;;12.50;68.00;;;;;;5055166;28;20020;-76
2022/04/12 03:04:01;;;;;;;5.40;3.70;;;12.50;68.20;;;;;;5052625;28;20035;-76
2022/04/12 03:06:27;;;;;;;4.72;3.42;;;12.40;68.00;;;;;;5041300;28;20036;-77
2022/04/12 03:08:52;;;;;;;4.88;3.70;;;12.40;68.10;;;;;;5053267;28;20020;-76
2022/04/12 03:11:18;;;;;;;4.50;3.42;;;12.40;68.10;;;;;;5054341;28;20504;-75
2022/04/12 03:13:44;;;;;;;5.10;3.88;;;12.40;68.10;;;;;;5038055;28;20493;-75
2022/04/12 03:16:10;;;;;;;4.82;3.78;;;12.40;68.10;;;;;;5053311;28;20044;-75
2022/04/12 03:18:35;;;;;;;4.30;3.42;;;12.40;68.20;;;;;;5053666;28;20050;-75
2022/04/12 03:21:01;;;;;;;5.82;3.95;;;12.30;68.10;;;;;;5070186;28;20043;-75
2022/04/12 03:23:27;;;;;;;5.38;4.03;;;12.30;68.10;;;;;;5069797;28;20041;-75
2022/04/12 03:25:52;;;;;;;5.13;3.85;;;12.30;68.10;;;;;;5052411;28;20028;-76
2022/04/12 03:28:18;;;;;;;5.32;3.60;;;12.30;68.10;;;;;;5057029;28;20088;-75
2022/04/12 03:30:44;;;;;;;4.43;3.50;;;12.20;68.00;;;;;;5054441;28;20037;-75
2022/04/12 03:33:10;;;;;;;5.15;3.88;;;12.20;68.00;;;;;;5035831;28;20484;-75
2022/04/12 03:35:36;;;;;;;5.25;3.88;;;12.20;68.00;;;;;;5047867;28;20424;-76
2022/04/12 03:38:02;;;;;;;4.70;3.58;;;12.20;68.10;;;;;;5059797;28;20516;-75
2022/04/12 03:40:31;;;;;;;5.70;3.90;;;12.10;68.10;;;;;;5077642;28;20017;-76
2022/04/12 03:43:04;;;;;;;6.22;4.03;;;12.10;68.00;;;;;;5070619;28;20012;-76
2022/04/12 03:45:31;;;;;;;5.05;3.75;;;12.10;68.10;;;;;;5035551;28;20028;-75
2022/04/12 03:47:57;;;;;;;4.70;3.60;;;12.10;68.00;;;;;;5034478;28;20112;-75
2022/04/12 03:50:23;;;;;;;5.47;3.60;;;12.10;68.10;;;;;;5040386;28;20174;-75
2022/04/12 03:52:50;;;;;;;5.32;3.72;;;12.00;68.20;;;;;;5055238;28;20092;-75
2022/04/12 03:55:30;;;;;;;4.65;3.63;;;12.00;68.10;;;;;;5067426;28;20055;-75
2022/04/12 03:58:00;;;;;;;5.88;3.60;;;12.00;68.20;;;;;;5035546;28;20075;-75
2022/04/12 04:00:27;;;;;;;4.82;3.78;;;12.00;68.20;;;;;;5034549;28;20037;-75
2022/04/12 04:02:53;;;;;;;4.75;3.53;;;12.00;68.20;;;;;;5051160;28;20472;-74
2022/04/12 04:05:19;;;;;;;5.65;3.90;;;12.00;68.20;;;;;;5063568;28;20025;-75
2022/04/12 04:07:45;;;;;;;6.28;4.28;;;11.90;68.10;;;;;;5051180;28;20040;-75
2022/04/12 04:10:11;;;;;;;4.75;3.42;;;11.90;68.20;;;;;;5054658;28;20051;-73
2022/04/12 04:12:37;;;;;;;5.13;3.78;;;11.90;68.20;;;;;;5053166;28;20089;-74
2022/04/12 04:15:05;;;;;;;5.07;3.63;;;11.90;68.20;;;;;;5069193;28;20033;-74
2022/04/12 04:17:32;;;;;;;5.22;3.78;;;11.80;68.10;;;;;;5052447;28;20157;-74
2022/04/12 04:19:58;;;;;;;4.93;3.38;;;11.80;68.20;;;;;;5035067;28;20028;-74
2022/04/12 04:22:23;;;;;;;4.82;3.40;;;11.80;68.10;;;;;;5072865;28;20020;-74
2022/04/12 04:24:49;;;;;;;4.85;3.30;;;11.80;68.10;;;;;;5051568;28;20047;-73
2022/04/12 04:27:16;;;;;;;4.50;3.25;;;11.80;68.10;;;;;;5051475;28;20060;-75
2022/04/12 04:29:42;;;;;;;4.63;3.25;;;11.70;68.10;;;;;;5059090;28;20091;-75
2022/04/12 04:32:08;;;;;;;4.20;3.28;;;11.70;68.10;;;;;;5055175;28;20071;-75
2022/04/12 04:34:34;;;;;;;5.03;3.60;;;11.70;68.20;;;;;;5053855;28;20039;-75
2022/04/12 04:37:00;;;;;;;4.93;3.45;;;11.70;68.20;;;;;;5070101;28;20088;-75
2022/04/12 04:39:26;;;;;;;6.00;3.50;;;11.70;68.30;;;;;;5051469;28;20029;-76
2022/04/12 04:41:51;;;;;;;4.90;3.08;;;11.70;68.30;;;;;;5067852;28;20028;-76
2022/04/12 04:44:17;;;;;;;4.38;3.08;;;11.60;68.20;;;;;;5055023;28;20249;-76
2022/04/12 04:46:43;;;;;;;4.75;3.55;;;11.60;68.20;;;;;;5034860;28;20036;-75
2022/04/12 04:49:08;;;;;;;4.05;3.10;;;11.60;68.20;;;;;;5036737;28;20032;-74
2022/04/12 04:51:36;;;;;;;4.40;3.35;;;11.60;68.10;;;;;;5039861;28;20029;-74
2022/04/12 04:54:02;;;;;;;4.45;3.20;;;11.60;68.10;;;;;;5069529;28;20031;-76
2022/04/12 04:56:28;;;;;;;4.63;3.60;;;11.50;68.10;;;;;;5050768;28;20029;-75
2022/04/12 04:58:54;;;;;;;4.80;3.40;;;11.50;68.00;;;;;;5074907;28;20025;-73
2022/04/12 05:01:21;;;;;;;4.18;3.08;;;11.50;68.10;;;;;;5050553;28;20169;-76
2022/04/12 05:03:47;;;;;;;4.72;3.47;;;11.50;68.20;;;;;;5020207;28;20457;-75
2022/04/12 05:06:14;;;;;;;5.07;3.80;;;11.50;68.10;;;;;;5034409;28;20350;-75
2022/04/12 05:08:40;;;;;;;4.10;3.15;;;11.50;68.10;;;;;;5032993;28;20105;-75
2022/04/12 05:11:06;;;;;;;4.32;3.13;;;11.40;68.10;;;;;;5067109;28;20075;-78
2022/04/12 05:13:32;;;;;;;4.25;2.97;;;11.40;68.10;;;;;;5031831;28;20044;-73
2022/04/12 05:15:58;;;;;;;3.85;2.92;;;11.40;68.10;;;;;;5048061;28;20358;-74
2022/04/12 05:18:23;;;;;;;4.50;3.15;;;11.40;68.10;;;;;;5049617;28;20029;-75
2022/04/12 05:20:49;;;;;;;4.72;3.40;;;11.40;68.10;;;;;;5033706;28;20570;-74
2022/04/12 05:23:16;;;;;;;4.95;3.20;;;11.40;68.10;;;;;;5034146;28;20035;-74
2022/04/12 05:25:42;;;;;;;5.25;4.03;;;11.40;68.10;;;;;;5033661;28;20024;-74
2022/04/12 05:28:08;;;;;;;4.88;3.20;;;11.40;68.10;;;;;;5052684;28;20032;-74
2022/04/12 05:30:33;;;;;;;4.78;3.30;;;11.30;68.10;;;;;;5054034;28;20051;-74
2022/04/12 05:32:59;;;;;;;4.22;3.05;;;11.30;68.20;;;;;;5053989;28;20033;-74
2022/04/12 05:35:25;;;;;;;5.03;3.40;;;11.30;68.10;;;;;;5054555;28;20470;-75
2022/04/12 05:37:53;;;;;;;4.65;3.17;;;11.30;68.10;;;;;;5054358;28;20555;-74
2022/04/12 05:40:21;;;;;;;4.25;3.10;;;11.30;68.10;;;;;;5071801;28;20028;-74
2022/04/12 05:42:48;;;;;;;5.35;3.15;;;11.30;68.20;;;;;;5054035;28;20024;-74
2022/04/12 05:45:15;;;;;;;4.75;3.22;;;11.30;68.20;;;;;;5037477;28;20028;-75
2022/04/12 05:47:45;;;;;;;4.10;3.13;;;11.30;68.20;;;;;;5053922;28;20037;-74
2022/04/12 05:50:12;;;;;;;4.80;3.35;;;11.20;68.20;;;;;;5053907;28;20044;-74
2022/04/12 05:52:38;;;;;;;4.20;3.13;;;11.30;68.20;;;;;;5053900;28;20033;-74
2022/04/12 05:55:06;;;;;;;5.07;3.28;;;11.20;68.20;;;;;;5037511;28;20036;-74
2022/04/12 05:57:34;;;;;;;4.18;3.05;;;11.20;68.20;;;;;;5053411;28;20047;-74
2022/04/12 06:00:00;;;;;;;4.57;3.10;;;11.20;68.20;;;;;;5054262;28;20074;-74
2022/04/12 06:02:25;;;;;;;4.22;3.05;;;11.20;68.20;;;;;;5054136;28;20024;-74
2022/04/12 06:04:51;;;;;;;4.30;3.13;;;11.20;68.20;;;;;;5036866;28;20021;-74
2022/04/12 06:07:17;;;;;;;3.70;2.80;;;11.20;68.20;;;;;;5043296;28;20145;-74
2022/04/12 06:09:42;;;;;;;4.70;3.10;;;11.20;68.20;;;;;;5029775;28;20389;-74
2022/04/12 06:12:09;;;;;;;5.28;3.42;;;11.20;68.20;;;;;;5030380;28;20543;-74
2022/04/12 06:14:34;;;;;;;3.92;3.10;;;11.20;68.20;;;;;;5030234;28;20037;-74
2022/04/12 06:17:00;;;;;;;4.20;3.15;;;11.20;68.30;;;;;;5031841;28;20029;-74
2022/04/12 06:19:26;;;;;;;3.97;3.15;;;11.20;68.30;;;;;;5031419;28;20108;-75
2022/04/12 06:21:51;;;;;;;4.22;3.03;;;11.20;68.30;;;;;;5029804;28;20028;-74
2022/04/12 06:24:18;;;;;;;4.82;3.80;;;11.20;68.30;;;;;;5031304;28;20029;-75
2022/04/12 06:26:44;;;;;;;4.43;3.15;;;11.20;68.30;;;;;;5029502;28;20041;-74
2022/04/12 06:29:09;;;;;;;4.78;3.08;;;11.20;68.30;;;;;;5031408;28;20497;-74
2022/04/12 06:31:35;;;;;;;4.38;3.20;;;11.20;68.30;;;;;;5013483;28;20033;-74
2022/04/12 06:34:01;;;;;;;5.32;3.72;;;11.20;68.30;;;;;;5013131;28;20030;-74
2022/04/12 06:36:27;;;;;;;4.00;2.90;;;11.20;69.00;;;;;;4997410;28;20033;-73
2022/04/12 06:38:54;;;;;;;4.63;3.30;;;11.20;68.40;;;;;;5011681;28;20105;-75
2022/04/12 06:41:20;;;;;;;5.53;3.72;;;11.20;68.40;;;;;;5009079;28;20037;-74
2022/04/12 06:43:46;;;;;;;4.25;3.42;;;11.20;68.30;;;;;;5029357;28;20022;-74
2022/04/12 06:46:11;;;;;;;5.38;3.42;;;11.20;68.30;;;;;;5030823;28;20041;-74
2022/04/12 06:48:37;;;;;;;5.28;3.35;;;11.20;68.30;;;;;;5012648;28;20127;-75
2022/04/12 06:51:03;;;;;;;4.10;3.20;;;11.20;68.40;;;;;;5029702;28;20168;-75
2022/04/12 06:53:29;;;;;;;4.10;3.28;;;11.20;68.40;;;;;;5013146;28;20037;-74
2022/04/12 06:55:54;;;;;;;4.45;3.22;;;11.20;68.40;;;;;;5030665;28;20041;-74
2022/04/12 06:58:20;;;;;;;3.97;3.15;;;11.20;68.40;;;;;;5030712;28;20417;-75
2022/04/12 07:00:46;;;;;;;4.88;3.40;;;11.20;68.40;;;;;;5013286;28;20474;-74
2022/04/12 07:03:11;;;;;;;5.10;3.58;;;11.20;68.40;;;;;;5030210;28;20390;-74
2022/04/12 07:05:37;;;;;;;4.28;3.13;;;11.20;68.40;;;;;;5029071;28;20029;-73
2022/04/12 07:08:04;;;;;;;4.47;3.30;;;11.30;68.40;;;;;;5056550;28;20067;-74
2022/04/12 07:10:30;;;;;;;4.45;3.25;;;11.20;68.40;;;;;;5070437;28;20023;-74
2022/04/12 07:12:55;;;;;;;4.70;3.53;;;11.20;68.40;;;;;;5063920;28;20028;-74
2022/04/12 07:15:21;;;;;;;6.20;3.28;;;11.20;68.40;;;;;;5045268;28;20025;-75
2022/04/12 07:17:47;;;;;;;4.35;3.28;;;11.20;68.40;;;;;;5070468;28;20048;-74
2022/04/12 07:20:13;;;;;;;7.40;3.63;;;11.30;68.50;;;;;;5070222;28;20033;-74
2022/04/12 07:22:39;;;;;;;5.20;3.95;;;11.30;68.50;;;;;;5033249;28;20124;-74
2022/04/12 07:25:05;;;;;;;4.80;3.53;;;11.30;68.50;;;;;;5035353;28;20131;-74
2022/04/12 07:27:36;;;;;;;4.57;3.63;;;11.30;68.50;;;;;;5070276;28;20032;-74
2022/04/12 07:30:06;;;;;;;4.95;3.42;;;11.30;68.60;;;;;;5070688;28;20061;-74
2022/04/12 07:32:33;;;;;;;4.85;3.75;;;11.30;68.50;;;;;;5051958;28;20021;-75
2022/04/12 07:34:58;;;;;;;5.10;3.33;;;11.30;68.50;;;;;;5051506;28;20036;-74
2022/04/12 07:37:24;;;;;;;5.40;3.88;;;11.30;68.50;;;;;;5069942;28;20050;-74
2022/04/12 07:39:50;;;;;;;5.05;3.80;;;11.30;68.50;;;;;;5051729;28;20024;-74
2022/04/12 07:42:16;;;;;;;5.00;3.70;;;11.40;68.60;;;;;;5051917;28;20048;-73
2022/04/12 07:44:42;;;;;;;5.38;3.75;;;11.40;68.60;;;;;;5062834;28;20496;-74
2022/04/12 07:47:08;;;;;;;5.07;4.03;;;11.40;68.60;;;;;;5069873;28;20037;-73
2022/04/12 07:49:34;;;;;;;5.35;3.90;;;11.40;68.60;;;;;;5051314;28;20048;-74
2022/04/12 07:52:00;;;;;;;4.90;3.60;;;11.40;68.60;;;;;;5051430;28;20020;-76
2022/04/12 07:54:26;;;;;;;5.60;3.97;;;11.40;68.60;;;;;;5033081;28;20029;-74
2022/04/12 07:56:51;;;;;;;6.13;4.13;;;11.40;68.60;;;;;;5051598;28;20077;-74
2022/04/12 07:59:17;;;;;;;4.90;3.58;;;11.40;68.60;;;;;;5033090;28;20477;-76
2022/04/12 08:01:43;;;;;;;4.97;3.58;;;11.40;68.70;;;;;;5084593;28;20051;-74
2022/04/12 08:04:09;;;;;;;5.45;3.88;;;11.50;68.70;;;;;;5069770;28;20036;-73
2022/04/12 08:06:35;;;;;;;5.43;3.90;;;11.50;68.70;;;;;;5051388;28;20480;-74
2022/04/12 08:09:00;;;;;;;4.75;3.67;;;11.50;68.70;;;;;;5041982;28;20044;-73
2022/04/12 08:11:26;;;;;;;5.20;3.63;;;11.50;68.80;;;;;;5051539;28;20499;-74
2022/04/12 08:13:53;;;;;;;4.45;3.33;;;11.60;68.80;;;;;;5044021;28;20025;-72
2022/04/12 08:16:19;;;;;;;5.25;3.92;;;11.50;68.70;;;;;;5051767;28;20112;-75
2022/04/12 08:18:45;;;;;;;5.68;3.75;;;11.60;68.80;;;;;;5070475;28;20077;-77
2022/04/12 08:21:11;;;;;;;5.28;3.85;;;11.60;68.80;;;;;;5068757;28;20115;-77
2022/04/12 08:23:37;;;;;;;5.22;3.88;;;11.60;68.90;;;;;;5051171;28;20041;-77
2022/04/12 08:26:02;;;;;;;6.05;4.30;;;11.60;68.90;;;;;;5069791;28;20017;-75
2022/04/12 08:28:28;;;;;;;5.55;4.03;;;11.70;68.90;;;;;;5051331;28;20078;-77
2022/04/12 08:30:54;;;;;;;5.68;3.97;;;11.70;68.90;;;;;;5044728;28;20064;-76
2022/04/12 08:33:20;;;;;;;5.45;4.00;;;11.70;68.90;;;;;;5043371;28;20036;-75
2022/04/12 08:35:46;;;;;;;5.35;3.85;;;11.80;68.90;;;;;;5041013;28;20443;-75
2022/04/12 08:38:11;;;;;;;5.50;3.97;;;11.80;68.90;;;;;;5051152;28;20112;-76
2022/04/12 08:40:40;;;;;;;5.45;3.80;;;11.90;68.90;;;;;;5068901;28;20040;-77
2022/04/12 08:43:07;;;;;;;5.70;3.83;;;11.90;68.90;;;;;;5051804;28;20032;-75
2022/04/12 08:45:36;;;;;;;5.60;3.90;;;12.00;68.90;;;;;;5051416;28;20035;-75
2022/04/12 08:48:03;;;;;;;5.07;3.78;;;12.10;69.00;;;;;;5034153;28;20082;-75
2022/04/12 08:50:28;;;;;;;5.28;3.83;;;12.10;69.00;;;;;;5051375;28;20032;-74
2022/04/12 08:52:54;;;;;;;5.68;3.80;;;12.20;69.00;;;;;;5068368;28;20084;-75
2022/04/12 08:55:21;;;;;;;6.25;4.30;;;12.20;69.00;;;;;;5051142;28;20086;-75
2022/04/12 08:57:46;;;;;;;5.55;3.72;;;12.30;69.00;;;;;;5068009;28;20033;-76
2022/04/12 09:00:12;;;;;;;5.68;3.83;;;12.40;69.00;;;;;;5032051;28;20110;-76
2022/04/12 09:02:39;;;;;;;5.65;3.95;;;12.40;69.00;;;;;;5052572;28;20381;-77
2022/04/12 09:05:08;;;;;;;5.18;3.97;;;12.50;69.00;;;;;;5038742;28;20170;-77
2022/04/12 09:07:45;;;;;;;5.18;3.88;;;12.60;69.10;;;;;;5055124;28;20056;-80
2022/04/12 09:10:11;;;;;;;4.88;4.10;;;12.70;69.10;;;;;;5051430;28;20036;-77
2022/04/12 09:12:36;;;;;;;4.90;3.42;;;12.70;69.00;;;;;;5038559;28;20029;-78
2022/04/12 09:15:10;;;;;;;5.50;3.85;;;12.80;69.00;;;;;;5054946;28;20033;-73
2022/04/12 09:17:37;;;;;;;6.03;4.15;;;12.90;69.10;;;;;;5071417;28;20025;-79
2022/04/12 09:20:10;;;;;;;4.93;3.40;;;13.00;69.00;;;;;;5055669;28;20146;-76
2022/04/12 09:22:37;;;;;;;5.53;4.32;;;13.10;69.00;;;;;;5072669;28;20031;-76
2022/04/12 09:25:05;;;;;;;5.45;3.95;;;13.10;69.00;;;;;;5053206;28;20098;-77
2022/04/12 09:27:33;;;;;;;5.90;4.30;;;13.20;69.00;;;;;;5072482;28;20362;-77
2022/04/12 09:30:01;;;;;;;5.78;4.13;;;13.30;69.10;;;;;;5072169;28;20045;-76
2022/04/12 09:32:29;;;;;;;5.32;4.07;;;13.40;69.10;;;;;;5056114;28;20563;-77
2022/04/12 09:34:56;;;;;;;5.85;4.25;;;13.50;69.10;;;;;;5036341;28;20056;-78
2022/04/12 09:37:26;;;;;;;7.28;4.32;;;13.60;69.10;;;;;;5072657;28;20094;-78
2022/04/12 09:39:59;;;;;;;5.28;4.10;;;13.70;69.10;;;;;;5054261;28;20034;-78
2022/04/12 09:42:43;;;;;;;5.07;3.67;;;13.80;69.10;;;;;;5054139;28;20031;-78
2022/04/12 09:45:15;;;;;;;5.43;3.92;;;13.90;69.20;;;;;;5037789;28;20028;-78
2022/04/12 09:47:42;;;;;;;6.68;4.32;;;13.90;69.10;;;;;;5072943;28;20028;-78
2022/04/12 09:50:09;;;;;;;5.53;4.50;;;14.10;69.20;;;;;;5054632;28;20074;-79
2022/04/12 09:52:35;;;;;;;5.40;3.97;;;14.10;69.20;;;;;;5072737;28;20025;-78
2022/04/12 09:55:01;;;;;;;6.35;4.32;;;14.20;69.20;;;;;;5037555;28;20043;-78
2022/04/12 09:57:26;;;;;;;5.55;4.45;;;14.30;69.20;;;;;;5054390;28;20071;-79
2022/04/12 09:59:57;;;;;;;5.85;4.38;;;14.50;69.20;;;;;;5054088;28;20044;-78
2022/04/12 10:02:24;;;;;;;4.95;3.85;;;14.60;69.30;;;;;;5053750;28;20035;-77
2022/04/12 10:04:54;;;;;;;5.05;3.80;;;14.70;69.20;;;;;;5054453;28;20016;-79
2022/04/12 10:07:23;;;;;;;5.40;3.90;;;14.80;69.30;;;;;;5054062;28;20060;-78
2022/04/12 10:09:50;;;;;;;5.80;4.47;;;14.90;69.20;;;;;;5071792;28;20033;-78
2022/04/12 10:12:17;;;;;;;6.05;4.25;;;15.00;69.20;;;;;;5071524;28;20027;-78
2022/04/12 10:14:44;;;;;;;5.30;3.88;;;15.10;69.20;;;;;;5071226;28;20037;-78
2022/04/12 10:17:11;;;;;;;4.93;3.88;;;15.20;69.20;;;;;;5053646;28;20032;-78
2022/04/12 10:19:38;;;;;;;5.80;4.38;;;15.30;69.20;;;;;;5037615;28;20028;-78
2022/04/12 10:22:04;;;;;;;4.88;3.70;;;15.40;69.30;;;;;;5053881;28;20032;-77
2022/04/12 10:24:32;;;;;;;4.80;3.58;;;15.50;69.30;;;;;;5054037;28;20039;-78
2022/04/12 10:26:58;;;;;;;6.00;4.22;;;15.60;69.30;;;;;;5050182;28;20039;-78
2022/04/12 10:29:24;;;;;;;5.70;3.63;;;15.70;69.30;;;;;;5072046;28;20140;-78
2022/04/12 10:32:02;;;;;;;5.43;3.60;;;15.90;69.80;;;;;;5034870;28;20021;-77
2022/04/12 10:34:27;;;;;;;4.18;3.20;;;16.00;69.30;;;;;;5037082;28;20051;-77
2022/04/12 10:37:02;;;;;;;4.43;3.13;;;16.10;69.20;;;;;;5052678;28;20031;-78
2022/04/12 10:39:29;;;;;;;;;;;16.20;69.30;;;;;;5066452;28;20025;-77
2022/04/12 10:41:57;;;;;;;4.22;2.85;;;16.30;69.20;;;;;;5071825;28;19959;-79
2022/04/12 10:44:25;;;;;;;4.35;3.28;;;16.40;69.20;;;;;;5071731;28;20095;-77
2022/04/12 10:46:51;;;;;;;4.20;3.10;;;16.50;69.40;;;;;;5036711;28;20024;-80
2022/04/12 10:49:19;;;;;;;4.15;2.95;;;16.60;69.50;;;;;;5053179;28;20135;-78
2022/04/12 10:51:46;;;;;;;4.35;2.97;;;16.70;69.40;;;;;;5054456;28;20021;-78
2022/04/12 10:54:42;;;;;;;5.05;3.28;;;16.80;69.20;;;;;;5083764;28;20728;-78
2022/04/12 10:57:17;;;;;;;;;;;17.00;69.50;;;;;;5048735;28;20053;-78
2022/04/12 10:59:57;;;;;;;4.30;3.03;;;17.10;69.20;;;;;;5054751;28;20022;-75
2022/04/12 11:02:36;;;;;;;3.85;2.55;;;17.20;69.20;;;;;;5052523;28;20443;-76
2022/04/12 11:05:03;;;;;;;3.45;2.75;;;17.30;69.30;;;;;;5065397;28;20031;-76
2022/04/12 11:07:38;;;;;;;3.80;2.88;;;17.40;69.30;;;;;;5069522;28;20127;-76
2022/04/12 11:10:12;;;;;;;;;;;17.50;69.50;;;;;;5025152;28;20143;-76
2022/04/12 11:12:43;;;;;;;4.47;2.70;;;17.60;69.30;;;;;;5068060;28;19915;-76
2022/04/12 11:15:23;;;;;;;3.90;2.72;;;17.80;69.20;;;;;;5052189;28;20213;-76
2022/04/12 11:17:49;;;;;;;4.60;2.92;;;17.80;69.50;;;;;;5052290;28;20550;-77
2022/04/12 11:20:22;;;;;;;4.90;3.08;;;17.90;69.50;;;;;;5070921;28;20089;-76
2022/04/12 11:23:01;;;;;;;4.20;3.08;;;18.00;69.60;;;;;;5068910;28;20036;-76
2022/04/12 11:25:27;;;;;;;3.38;2.65;;;18.20;69.70;;;;;;5031934;28;20029;-77
2022/04/12 11:27:57;;;;;;;4.28;2.72;;;18.20;69.50;;;;;;5069798;28;20535;-77
2022/04/12 11:30:27;;;;;;;3.65;2.72;;;18.30;69.50;;;;;;5069174;28;20047;-76
2022/04/12 11:32:55;;;;;;;4.22;3.10;;;18.40;69.50;;;;;;5069370;28;20032;-77
2022/04/12 11:35:24;;;;;;;4.32;3.20;;;18.50;69.40;;;;;;5035544;28;20035;-77
2022/04/12 11:37:50;;;;;;;4.50;3.15;;;18.60;69.40;;;;;;5051891;28;20385;-77
2022/04/12 11:40:16;;;;;;;3.70;2.88;;;18.70;69.40;;;;;;5052416;28;20021;-76
2022/04/12 11:42:45;;;;;;;4.68;3.10;;;18.70;69.30;;;;;;5041342;28;20572;-76
2022/04/12 11:45:12;;;;;;;4.53;3.03;;;18.80;69.30;;;;;;5051969;28;20029;-76
2022/04/12 11:47:43;;;;;;;4.07;2.78;;;18.90;69.30;;;;;;5051914;28;20111;-77
2022/04/12 11:50:17;;;;;;;4.15;3.03;;;19.00;69.20;;;;;;5051859;28;20397;-77
2022/04/12 11:52:46;;;;;;;3.33;2.47;;;19.00;69.20;;;;;;5035490;28;20020;-77
2022/04/12 11:55:13;;;;;;;3.35;2.55;;;19.10;69.20;;;;;;5035327;28;20438;-77
2022/04/12 11:57:39;;;;;;;4.00;2.90;;;19.20;69.30;;;;;;5035603;28;20089;-77
2022/04/12 12:00:06;;;;;;;4.65;3.15;;;19.20;69.30;;;;;;5051242;28;20040;-77
2022/04/12 12:02:35;;;;;;;4.55;2.92;;;19.30;69.30;;;;;;5034597;28;20094;-77
2022/04/12 12:05:13;;;;;;;4.30;2.88;;;19.40;69.50;;;;;;5067866;28;20016;-76
2022/04/12 12:07:40;;;;;;;3.50;2.75;;;19.40;69.50;;;;;;5060636;28;20044;-77
2022/04/12 12:10:13;;;;;;;3.25;2.40;;;19.50;69.50;;;;;;5069156;28;20033;-77
2022/04/12 12:12:45;;;;;;;4.10;2.83;;;19.60;69.70;;;;;;5051522;28;20021;-77
2022/04/12 12:15:24;;;;;;;3.92;2.80;;;19.60;69.50;;;;;;5051265;28;20086;-76
2022/04/12 12:17:51;;;;;;;3.80;2.75;;;19.70;69.60;;;;;;5065390;28;20028;-76
2022/04/12 12:20:19;;;;;;;4.13;2.63;;;19.80;69.50;;;;;;5051184;28;20032;-76
2022/04/12 12:22:49;;;;;;;5.10;3.22;;;19.80;69.50;;;;;;5051448;28;20025;-77
2022/04/12 12:25:23;;;;;;;4.03;2.50;;;19.90;69.50;;;;;;5068990;28;20044;-76
2022/04/12 12:27:53;;;;;;;3.72;2.80;;;20.00;69.50;;;;;;5052333;28;20052;-76
2022/04/12 12:30:24;;;;;;;4.07;2.97;;;20.00;69.40;;;;;;5069465;28;20035;-76
2022/04/12 12:32:56;;;;;;;4.28;2.78;;;20.10;69.40;;;;;;5051295;28;20496;-76
2022/04/12 12:35:28;;;;;;;3.42;2.50;;;20.10;69.40;;;;;;5051194;28;20033;-76
2022/04/12 12:38:12;;;;;;;4.32;2.78;;;20.20;69.20;;;;;;5068427;28;20036;-78
2022/04/12 12:40:39;;;;;;;4.43;2.80;;;20.20;69.10;;;;;;5051238;28;20024;-76
2022/04/12 12:43:06;;;;;;;3.63;2.50;;;20.30;68.90;;;;;;5068654;28;20512;-76
2022/04/12 12:45:37;;;;;;;4.38;2.75;;;20.30;68.80;;;;;;5051116;28;20029;-77
2022/04/12 12:48:09;;;;;;;3.47;2.60;;;20.40;68.80;;;;;;5042834;28;20108;-76
2022/04/12 12:50:38;;;;;;;3.15;2.30;;;20.40;68.70;;;;;;5050992;28;20040;-76